Time;durP1;ratioP1;P1;durP2;ratioP2;P2;SDS_P1;SDS_P2;PMS_P1;PMS_P2;Temp;Humidity;BMP_temperature;BMP_pressure;BME280_temperature;BME280_humidity;BME280_pressure;Samples;Min_cycle;Max_cycle;Signal;HPM_P1;HPM_P2
2022/10/09 00:00:12;;;;;;;;;;;;;;;22.13;66.46;99080.13;2081409;28;20015;-48
2022/10/09 00:01:15;;;;;;;;;;;;;;;22.13;66.38;99084.72;2078726;28;19978;-47
2022/10/09 00:02:16;;;;;;;;;;;;;;;22.13;66.24;99076.63;2079330;28;19967;-49
2022/10/09 00:03:17;;;;;;;;;;;;;;;22.12;66.34;99078.50;2080921;28;19971;-49
2022/10/09 00:04:18;;;;;;;;;;;;;;;22.13;66.58;99077.44;2080223;28;19963;-48
2022/10/09 00:05:19;;;;;;;;;;;;;;;22.13;66.42;99085.53;2077937;28;19933;-47
2022/10/09 00:06:22;;;;;;;;;;;;;;;22.12;66.43;99083.03;2079252;28;19940;-48
2022/10/09 00:07:22;;;;;;;;;;;;;;;22.11;66.58;99079.53;2079165;28;19933;-47
2022/10/09 00:08:24;;;;;;;;;;;;;;;22.12;66.61;99085.75;2079571;28;19979;-47
2022/10/09 00:09:26;;;;;;;;;;;;;;;22.12;66.56;99089.31;2072349;28;19933;-48
2022/10/09 00:10:27;;;;;;;;;;;;;;;22.11;66.41;99084.91;2078989;28;20002;-48
2022/10/09 00:11:29;;;;;;;;;;;;;;;22.13;66.48;99092.81;2078569;28;20424;-46
2022/10/09 00:12:30;;;;;;;;;;;;;;;22.12;66.39;99092.00;2080940;28;19932;-46
2022/10/09 00:13:31;;;;;;;;;;;;;;;22.12;66.10;99088.44;2078436;28;19925;-47
2022/10/09 00:14:32;;;;;;;;;;;;;;;22.12;66.32;99092.00;2080832;28;20396;-48
2022/10/09 00:15:36;;;;;;;;;;;;;;;22.11;66.31;99090.31;2083163;28;19928;-45
2022/10/09 00:16:37;;;;;;;;;;;;;;;22.14;66.18;99089.06;2079546;28;19951;-48
2022/10/09 00:17:38;;;;;;;;;;;;;;;22.14;66.11;99100.69;2077292;28;20401;-46
2022/10/09 00:18:39;;;;;;;;;;;;;;;22.12;66.32;99086.59;2079439;28;20050;-47
2022/10/09 00:19:40;;;;;;;;;;;;;;;22.13;66.24;99084.72;2084687;28;20543;-46
2022/10/09 00:20:42;;;;;;;;;;;;;;;22.13;66.11;99087.44;2078490;28;19995;-49
2022/10/09 00:21:43;;;;;;;;;;;;;;;22.13;66.22;99092.81;2081476;28;20840;-46
2022/10/09 00:22:44;;;;;;;;;;;;;;;22.13;66.23;99090.94;2082334;28;19936;-46
2022/10/09 00:23:45;;;;;;;;;;;;;;;22.13;66.05;99087.44;2080665;28;20330;-47
2022/10/09 00:24:48;;;;;;;;;;;;;;;22.15;65.67;99091.56;2081201;28;19937;-49
2022/10/09 00:25:49;;;;;;;;;;;;;;;22.16;66.00;99092.41;2077192;28;19932;-45
2022/10/09 00:26:50;;;;;;;;;;;;;;;22.14;65.79;99089.91;2080618;28;19932;-45
2022/10/09 00:27:51;;;;;;;;;;;;;;;22.15;66.22;99093.41;2077196;28;20338;-45
2022/10/09 00:28:52;;;;;;;;;;;;;;;22.14;66.22;99089.06;2082414;28;19982;-46
2022/10/09 00:29:53;;;;;;;;;;;;;;;22.13;65.81;99088.25;2080113;28;19925;-46
2022/10/09 00:30:55;;;;;;;;;;;;;;;22.13;66.36;99092.81;2080873;28;19982;-45
2022/10/09 00:31:55;;;;;;;;;;;;;;;22.12;66.45;99091.16;2081077;28;19933;-45
2022/10/09 00:32:57;;;;;;;;;;;;;;;22.12;66.34;99096.56;2076274;28;20521;-47
2022/10/09 00:33:57;;;;;;;;;;;;;;;22.09;66.63;99087.84;2078428;28;20594;-45
2022/10/09 00:34:58;;;;;;;;;;;;;;;22.10;66.63;99094.09;2078059;28;19936;-45
2022/10/09 00:36:01;;;;;;;;;;;;;;;22.13;66.40;99098.22;2075889;28;20603;-45
2022/10/09 00:37:02;;;;;;;;;;;;;;;22.11;66.51;99095.72;2079431;28;20462;-45
2022/10/09 00:38:03;;;;;;;;;;;;;;;22.11;66.34;99089.50;2078227;28;19958;-44
2022/10/09 00:39:04;;;;;;;;;;;;;;;22.11;66.22;99090.31;2080446;28;19933;-46
2022/10/09 00:40:07;;;;;;;;;;;;;;;22.09;66.40;99089.69;2079030;28;20030;-46
2022/10/09 00:41:10;;;;;;;;;;;;;;;22.09;66.40;99090.56;2077999;28;19937;-47
2022/10/09 00:42:11;;;;;;;;;;;;;;;22.11;66.33;99093.03;2077918;28;20077;-47
2022/10/09 00:43:15;;;;;;;;;;;;;;;22.10;66.35;99088.69;2080464;28;19924;-47
2022/10/09 00:44:34;;;;;;;;;;;;;;;22.12;66.21;99085.75;2078500;28;19925;-45
2022/10/09 00:45:35;;;;;;;;;;;;;;;22.11;66.48;99084.09;2077913;28;19936;-47
2022/10/09 00:46:41;;;;;;;;;;;;;;;22.09;66.39;99082.44;2078742;28;19929;-45
2022/10/09 00:47:44;;;;;;;;;;;;;;;22.09;66.16;99074.34;2079521;28;19929;-46
2022/10/09 00:48:46;;;;;;;;;;;;;;;22.08;66.28;99079.97;2079287;28;19979;-45
2022/10/09 00:49:49;;;;;;;;;;;;;;;22.11;66.37;99084.09;2077662;28;19940;-45
2022/10/09 00:50:51;;;;;;;;;;;;;;;22.09;66.28;99081.59;2080040;28;19929;-45
2022/10/09 00:51:55;;;;;;;;;;;;;;;22.09;66.19;99082.44;2080993;28;19925;-46
2022/10/09 00:52:58;;;;;;;;;;;;;;;22.10;66.31;99080.56;2077148;28;19933;-46
2022/10/09 00:53:59;;;;;;;;;;;;;;;22.09;66.43;99077.06;2078280;28;20406;-46
2022/10/09 00:55:01;;;;;;;;;;;;;;;22.09;66.14;99082.44;2079545;28;19925;-46
2022/10/09 00:56:04;;;;;;;;;;;;;;;22.13;66.23;99079.31;2080515;28;19987;-45
2022/10/09 00:57:05;;;;;;;;;;;;;;;22.10;66.01;99075.19;2078131;28;19937;-45
2022/10/09 00:58:07;;;;;;;;;;;;;;;22.09;66.16;99077.06;2079991;28;20294;-49
2022/10/09 00:59:07;;;;;;;;;;;;;;;22.07;66.26;99072.91;2081940;28;19936;-46
2022/10/09 01:00:11;;;;;;;;;;;;;;;22.09;66.35;99074.34;2080342;28;19936;-46
2022/10/09 01:01:12;;;;;;;;;;;;;;;22.08;66.37;99075.38;2077836;28;19929;-46
2022/10/09 01:02:13;;;;;;;;;;;;;;;22.08;66.10;99075.38;2082399;28;19979;-47
2022/10/09 01:03:13;;;;;;;;;;;;;;;22.08;66.20;99069.16;2077040;28;20337;-46
2022/10/09 01:04:15;;;;;;;;;;;;;;;22.06;66.21;99072.09;2081753;28;19936;-49
2022/10/09 01:05:16;;;;;;;;;;;;;;;22.11;66.26;99067.91;2082612;28;19925;-45
2022/10/09 01:06:18;;;;;;;;;;;;;;;22.08;66.37;99064.56;2080372;28;20540;-45
2022/10/09 01:07:26;;;;;;;;;;;;;;;22.08;66.42;99061.03;2078617;28;20398;-47
2022/10/09 01:08:30;;;;;;;;;;;;;;;22.08;66.20;99064.56;2078862;28;19939;-46
2022/10/09 01:09:39;;;;;;;;;;;;;;;22.08;66.11;99063.75;2081240;28;19925;-46
2022/10/09 01:10:45;;;;;;;;;;;;;;;22.08;66.41;99061.88;2079383;28;19966;-45
2022/10/09 01:11:49;;;;;;;;;;;;;;;22.09;66.25;99060.00;2072228;28;19945;-47
2022/10/09 01:12:54;;;;;;;;;;;;;;;22.09;66.26;99050.03;2080083;28;19967;-47
2022/10/09 01:13:56;;;;;;;;;;;;;;;22.08;66.58;99053.75;2072418;28;19993;-47
2022/10/09 01:15:03;;;;;;;;;;;;;;;22.08;66.41;99047.53;2075412;28;19940;-47
2022/10/09 01:16:06;;;;;;;;;;;;;;;22.08;66.41;99048.38;2080605;28;19928;-45
2022/10/09 01:17:12;;;;;;;;;;;;;;;22.07;66.48;99040.50;2072856;28;19936;-47
2022/10/09 01:18:18;;;;;;;;;;;;;;;22.03;66.39;99045.47;2072443;28;20410;-49
2022/10/09 01:19:27;;;;;;;;;;;;;;;22.07;66.46;99040.50;2072724;28;19935;-46
2022/10/09 01:20:33;;;;;;;;;;;;;;;22.07;66.61;99052.13;2073356;28;20015;-45
2022/10/09 01:21:37;;;;;;;;;;;;;;;22.08;66.52;99042.97;2071726;28;19968;-45
2022/10/09 01:22:44;;;;;;;;;;;;;;;22.08;66.53;99042.97;2071992;28;19925;-45
2022/10/09 01:23:51;;;;;;;;;;;;;;;22.07;66.66;99041.31;2072192;28;19928;-47
2022/10/09 01:24:54;;;;;;;;;;;;;;;22.07;66.43;99043.19;2074332;28;19929;-45
2022/10/09 01:26:00;;;;;;;;;;;;;;;22.07;66.51;99043.19;2072000;28;20756;-44
2022/10/09 01:27:07;;;;;;;;;;;;;;;22.07;66.48;99040.50;2070870;28;19936;-45
2022/10/09 01:28:09;;;;;;;;;;;;;;;22.05;66.29;99038.00;2073993;28;20403;-45
2022/10/09 01:29:10;;;;;;;;;;;;;;;22.05;66.42;99031.78;2071063;28;19925;-47
2022/10/09 01:30:13;;;;;;;;;;;;;;;22.03;66.63;99031.16;2069953;28;20584;-45
2022/10/09 01:31:15;;;;;;;;;;;;;;;22.04;66.55;99038.22;2073600;28;19933;-45
2022/10/09 01:32:18;;;;;;;;;;;;;;;22.04;66.40;99036.34;2066091;28;19933;-45
2022/10/09 01:33:19;;;;;;;;;;;;;;;22.04;66.48;99036.34;2073726;28;19932;-45
2022/10/09 01:34:21;;;;;;;;;;;;;;;22.05;66.41;99031.78;2074373;28;19933;-46
2022/10/09 01:35:22;;;;;;;;;;;;;;;22.04;66.24;99032.81;2072822;28;20619;-46
2022/10/09 01:36:24;;;;;;;;;;;;;;;22.04;66.31;99033.66;2072093;28;19936;-45
2022/10/09 01:37:26;;;;;;;;;;;;;;;22.03;66.30;99026.56;2070103;28;19925;-46
2022/10/09 01:38:29;;;;;;;;;;;;;;;22.04;66.32;99030.94;2070698;28;19944;-45
2022/10/09 01:39:31;;;;;;;;;;;;;;;22.03;66.41;99029.28;2070302;28;19925;-45
2022/10/09 01:40:32;;;;;;;;;;;;;;;22.04;66.00;99030.94;2076356;28;19936;-45
2022/10/09 01:41:33;;;;;;;;;;;;;;;22.03;66.25;99029.28;2077711;28;19933;-44
2022/10/09 01:42:36;;;;;;;;;;;;;;;22.04;66.30;99025.53;2080088;28;19983;-47
2022/10/09 01:43:36;;;;;;;;;;;;;;;22.04;66.33;99032.81;2080541;28;19985;-47
2022/10/09 01:44:38;;;;;;;;;;;;;;;22.03;66.38;99029.28;2078212;28;19933;-45
2022/10/09 01:45:39;;;;;;;;;;;;;;;22.04;66.22;99033.66;2080081;28;19933;-47
2022/10/09 01:46:41;;;;;;;;;;;;;;;22.04;66.32;99033.66;2082112;28;19979;-46
2022/10/09 01:47:42;;;;;;;;;;;;;;;22.03;66.09;99029.28;2078155;28;20311;-47
2022/10/09 01:48:45;;;;;;;;;;;;;;;22.03;65.99;99031.97;2077330;28;20024;-47
2022/10/09 01:49:50;;;;;;;;;;;;;;;22.04;66.17;99030.13;2076904;28;19925;-47
2022/10/09 01:50:53;;;;;;;;;;;;;;;22.05;66.29;99034.47;2082056;28;20014;-47
2022/10/09 01:51:57;;;;;;;;;;;;;;;22.02;66.36;99029.50;2077445;28;19929;-45
2022/10/09 01:53:00;;;;;;;;;;;;;;;22.01;66.19;99042.19;2077397;28;19925;-45
2022/10/09 01:54:02;;;;;;;;;;;;;;;22.01;66.28;99044.88;2080012;28;19925;-45
2022/10/09 01:55:07;;;;;;;;;;;;;;;22.02;66.10;99034.91;2078654;28;20605;-48
2022/10/09 01:56:11;;;;;;;;;;;;;;;22.01;66.19;99031.38;2076986;28;19937;-48
2022/10/09 01:57:13;;;;;;;;;;;;;;;22.02;66.27;99035.72;2075897;28;19933;-46
2022/10/09 01:58:19;;;;;;;;;;;;;;;22.03;66.26;99040.06;2077799;28;19933;-48
2022/10/09 01:59:19;;;;;;;;;;;;;;;22.04;66.07;99036.34;2075852;28;19925;-46
2022/10/09 02:00:21;;;;;;;;;;;;;;;22.04;66.15;99030.13;2077921;28;19983;-45
2022/10/09 02:01:25;;;;;;;;;;;;;;;22.02;66.19;99027.63;2080344;28;20532;-45
2022/10/09 02:02:27;;;;;;;;;;;;;;;22.04;66.16;99030.94;2080131;28;20537;-47
2022/10/09 02:03:29;;;;;;;;;;;;;;;22.03;65.97;99034.66;2079151;28;19925;-45
2022/10/09 02:04:31;;;;;;;;;;;;;;;22.03;66.14;99037.38;2079830;28;19928;-45
2022/10/09 02:05:33;;;;;;;;;;;;;;;22.04;66.06;99032.81;2080438;28;19977;-47
2022/10/09 02:06:35;;;;;;;;;;;;;;;22.05;66.12;99031.78;2079442;28;19929;-46
2022/10/09 02:07:36;;;;;;;;;;;;;;;22.05;65.98;99032.59;2078044;28;19986;-46
2022/10/09 02:08:39;;;;;;;;;;;;;;;22.03;65.99;99023.88;2079240;28;19987;-47
2022/10/09 02:09:39;;;;;;;;;;;;;;;22.03;65.92;99031.97;2080372;28;19929;-48
2022/10/09 02:10:42;;;;;;;;;;;;;;;22.03;66.07;99031.97;2079302;28;19932;-45
2022/10/09 02:11:44;;;;;;;;;;;;;;;22.01;65.93;99028.69;2076417;28;19944;-48
2022/10/09 02:12:49;;;;;;;;;;;;;;;22.03;65.89;99028.44;2080265;28;19998;-45
2022/10/09 02:13:52;;;;;;;;;;;;;;;22.04;65.91;99027.44;2077980;28;19929;-51
2022/10/09 02:14:53;;;;;;;;;;;;;;;22.04;65.83;99030.13;2078874;28;19976;-46
2022/10/09 02:15:59;;;;;;;;;;;;;;;22.04;65.73;99030.13;2078347;28;19935;-46
2022/10/09 02:17:03;;;;;;;;;;;;;;;22.01;65.95;99025.97;2078441;28;19932;-47
2022/10/09 02:18:07;;;;;;;;;;;;;;;22.02;65.70;99022.22;2078178;28;19929;-47
2022/10/09 02:19:12;;;;;;;;;;;;;;;22.02;65.76;99024.94;2079050;28;19924;-46
2022/10/09 02:20:16;;;;;;;;;;;;;;;22.01;65.56;99025.97;2078640;28;21066;-48
2022/10/09 02:21:20;;;;;;;;;;;;;;;22.02;65.59;99021.41;2080150;28;20371;-48
2022/10/09 02:22:24;;;;;;;;;;;;;;;22.06;65.74;99028.00;2079209;28;19986;-45
2022/10/09 02:23:26;;;;;;;;;;;;;;;22.04;65.70;99025.53;2076284;28;20389;-47
2022/10/09 02:24:27;;;;;;;;;;;;;;;22.04;65.63;99022.84;2079398;28;19933;-45
2022/10/09 02:25:29;;;;;;;;;;;;;;;22.03;65.96;99023.03;2076039;28;20421;-45
2022/10/09 02:26:29;;;;;;;;;;;;;;;22.02;65.65;99016.81;2073254;28;19925;-46
2022/10/09 02:27:31;;;;;;;;;;;;;;;22.01;65.95;99019.75;2081098;28;19929;-48
2022/10/09 02:28:32;;;;;;;;;;;;;;;22.02;65.89;99024.94;2080560;28;19929;-46
2022/10/09 02:29:35;;;;;;;;;;;;;;;22.01;65.93;99020.56;2079831;28;19929;-46
2022/10/09 02:30:42;;;;;;;;;;;;;;;22.01;65.79;99023.28;2077256;28;20023;-46
2022/10/09 02:31:44;;;;;;;;;;;;;;;22.02;65.83;99016.81;2078105;28;20016;-49
2022/10/09 02:32:45;;;;;;;;;;;;;;;22.03;65.89;99021.16;2079436;28;19925;-48
2022/10/09 02:33:47;;;;;;;;;;;;;;;22.03;65.80;99020.34;2080390;28;20306;-49
2022/10/09 02:34:47;;;;;;;;;;;;;;;22.04;65.91;99022.84;2081016;28;19929;-46
2022/10/09 02:35:49;;;;;;;;;;;;;;;22.01;65.86;99017.88;2079419;28;19924;-47
2022/10/09 02:36:50;;;;;;;;;;;;;;;22.00;66.10;99021.59;2076272;28;20383;-49
2022/10/09 02:37:51;;;;;;;;;;;;;;;22.01;66.09;99020.56;2069929;28;19929;-48
2022/10/09 02:38:52;;;;;;;;;;;;;;;22.00;66.02;99018.91;2074768;28;20367;-46
2022/10/09 02:39:54;;;;;;;;;;;;;;;22.00;65.84;99013.50;2077405;28;19929;-48
2022/10/09 02:40:56;;;;;;;;;;;;;;;22.01;65.88;99020.56;2073217;28;20092;-46
2022/10/09 02:41:57;;;;;;;;;;;;;;;22.02;65.77;99018.69;2075013;28;19928;-48
2022/10/09 02:42:58;;;;;;;;;;;;;;;22.00;65.75;99012.69;2076154;28;19928;-46
2022/10/09 02:44:00;;;;;;;;;;;;;;;22.01;65.67;99015.19;2075805;28;19929;-48
2022/10/09 02:45:02;;;;;;;;;;;;;;;22.01;65.70;99015.19;2080727;28;19933;-47
2022/10/09 02:46:03;;;;;;;;;;;;;;;22.01;65.67;99015.19;2077361;28;19968;-47
2022/10/09 02:47:04;;;;;;;;;;;;;;;22.01;65.73;99012.47;2077720;28;19925;-47
2022/10/09 02:48:05;;;;;;;;;;;;;;;22.01;65.63;99015.19;2082597;28;20004;-48
2022/10/09 02:49:06;;;;;;;;;;;;;;;22.01;65.51;99015.19;2078874;28;19933;-48
2022/10/09 02:50:08;;;;;;;;;;;;;;;22.00;65.46;99005.41;2082575;28;21108;-49
2022/10/09 02:51:09;;;;;;;;;;;;;;;22.01;65.54;99009.78;2077936;28;19933;-47
2022/10/09 02:52:10;;;;;;;;;;;;;;;22.01;65.44;99015.19;2079770;28;19929;-47
2022/10/09 02:53:10;;;;;;;;;;;;;;;22.00;65.46;99004.56;2078385;28;19933;-47
2022/10/09 02:54:12;;;;;;;;;;;;;;;22.00;65.64;99002.69;2075249;28;19929;-48
2022/10/09 02:55:12;;;;;;;;;;;;;;;22.01;65.50;99004.38;2076311;28;19983;-46
2022/10/09 02:56:14;;;;;;;;;;;;;;;22.02;65.48;99013.28;2077076;28;19925;-46
2022/10/09 02:57:14;;;;;;;;;;;;;;;22.02;65.66;99013.28;2079036;28;19979;-45
2022/10/09 02:58:16;;;;;;;;;;;;;;;22.02;65.57;99016.81;2075785;28;19928;-48
2022/10/09 02:59:17;;;;;;;;;;;;;;;22.01;65.63;99008.94;2070946;28;19929;-46
2022/10/09 03:00:19;;;;;;;;;;;;;;;22.02;65.39;99011.41;2077224;28;19929;-46
2022/10/09 03:01:21;;;;;;;;;;;;;;;22.01;65.49;99009.78;2072093;28;19929;-49
2022/10/09 03:02:21;;;;;;;;;;;;;;;22.01;65.36;99007.06;2070858;28;19929;-46
2022/10/09 03:03:23;;;;;;;;;;;;;;;22.01;65.44;99015.19;2068810;28;19933;-46
2022/10/09 03:04:24;;;;;;;;;;;;;;;22.01;65.10;99014.34;2067531;28;19963;-46
2022/10/09 03:05:25;;;;;;;;;;;;;;;22.02;65.29;99010.59;2071626;28;21207;-48
2022/10/09 03:06:27;;;;;;;;;;;;;;;22.00;65.44;99016.19;2071180;28;19925;-46
2022/10/09 03:07:28;;;;;;;;;;;;;;;21.99;65.29;99011.84;2073419;28;19933;-47
2022/10/09 03:08:29;;;;;;;;;;;;;;;22.02;65.38;99016.81;2072947;28;19932;-47
2022/10/09 03:09:31;;;;;;;;;;;;;;;22.01;65.45;99017.88;2068577;28;19937;-46
2022/10/09 03:10:32;;;;;;;;;;;;;;;22.01;65.25;99014.34;2071658;28;19940;-46
2022/10/09 03:11:33;;;;;;;;;;;;;;;22.00;65.28;99016.19;2073963;28;20599;-46
2022/10/09 03:12:33;;;;;;;;;;;;;;;22.00;65.12;99018.91;2076700;28;20647;-46
2022/10/09 03:13:35;;;;;;;;;;;;;;;22.01;65.41;99022.47;2068965;28;19925;-48
2022/10/09 03:14:35;;;;;;;;;;;;;;;22.01;65.25;99019.75;2076580;28;19936;-46
2022/10/09 03:15:38;;;;;;;;;;;;;;;22.01;65.07;99015.19;2072927;28;20382;-49
2022/10/09 03:16:39;;;;;;;;;;;;;;;22.00;65.17;99018.06;2072892;28;19991;-48
2022/10/09 03:17:40;;;;;;;;;;;;;;;22.00;65.25;99021.59;2074891;28;19963;-47
2022/10/09 03:18:41;;;;;;;;;;;;;;;22.00;65.19;99018.91;2073994;28;19928;-46
2022/10/09 03:19:42;;;;;;;;;;;;;;;22.01;65.23;99014.34;2074923;28;19924;-48
2022/10/09 03:20:43;;;;;;;;;;;;;;;22.00;65.27;99016.19;2066952;28;20386;-47
2022/10/09 03:21:44;;;;;;;;;;;;;;;22.00;65.13;99015.38;2068265;28;19933;-49
2022/10/09 03:22:45;;;;;;;;;;;;;;;22.00;65.20;99013.50;2071934;28;19937;-47
2022/10/09 03:23:46;;;;;;;;;;;;;;;22.00;65.39;99013.50;2073546;28;19933;-47
2022/10/09 03:24:47;;;;;;;;;;;;;;;22.01;65.17;99025.16;2074915;28;20585;-47
2022/10/09 03:25:54;;;;;;;;;;;;;;;22.01;65.32;99022.47;2071886;28;19929;-49
2022/10/09 03:26:55;;;;;;;;;;;;;;;22.00;65.17;99018.91;2067841;28;19933;-50
2022/10/09 03:27:56;;;;;;;;;;;;;;;21.99;65.15;99021.84;2074006;28;20010;-47
2022/10/09 03:28:57;;;;;;;;;;;;;;;22.00;65.37;99016.19;2075305;28;20006;-50
2022/10/09 03:29:58;;;;;;;;;;;;;;;22.00;65.26;99018.91;2072696;28;19933;-48
2022/10/09 03:31:00;;;;;;;;;;;;;;;21.99;65.13;99017.25;2071922;28;19933;-46
2022/10/09 03:32:01;;;;;;;;;;;;;;;21.98;65.25;99020.16;2074270;28;20495;-48
2022/10/09 03:33:02;;;;;;;;;;;;;;;21.99;65.10;99017.25;2074027;28;19925;-47
2022/10/09 03:34:03;;;;;;;;;;;;;;;21.98;65.16;99017.47;2073530;28;19932;-47
2022/10/09 03:35:04;;;;;;;;;;;;;;;21.98;65.28;99021.00;2076569;28;20545;-49
2022/10/09 03:36:06;;;;;;;;;;;;;;;21.99;65.20;99025.34;2073849;28;19933;-45
2022/10/09 03:37:08;;;;;;;;;;;;;;;21.99;65.27;99022.66;2070968;28;19925;-46
2022/10/09 03:38:08;;;;;;;;;;;;;;;21.97;65.40;99013.94;2073042;28;19936;-48
2022/10/09 03:39:10;;;;;;;;;;;;;;;21.98;65.19;99021.00;2074822;28;19929;-47
2022/10/09 03:40:10;;;;;;;;;;;;;;;21.98;65.13;99015.63;2075093;28;19929;-46
2022/10/09 03:41:12;;;;;;;;;;;;;;;21.99;65.26;99021.84;2070906;28;20020;-48
2022/10/09 03:42:12;;;;;;;;;;;;;;;21.99;65.28;99014.56;2073139;28;21537;-45
2022/10/09 03:43:14;;;;;;;;;;;;;;;21.99;65.23;99017.25;2074816;28;19935;-50
2022/10/09 03:44:14;;;;;;;;;;;;;;;21.98;64.98;99018.31;2071810;28;20395;-49
2022/10/09 03:45:16;;;;;;;;;;;;;;;21.98;65.12;99015.63;2073365;28;19987;-48
2022/10/09 03:46:18;;;;;;;;;;;;;;;21.97;65.14;99013.94;2073668;28;19942;-47
2022/10/09 03:47:19;;;;;;;;;;;;;;;21.98;64.81;99023.72;2073321;28;20016;-45
2022/10/09 03:48:20;;;;;;;;;;;;;;;21.97;64.84;99018.50;2075407;28;19945;-49
2022/10/09 03:49:21;;;;;;;;;;;;;;;21.96;64.83;99017.69;2073126;28;20465;-45
2022/10/09 03:50:22;;;;;;;;;;;;;;;21.97;64.82;99019.34;2071107;28;19929;-46
2022/10/09 03:51:23;;;;;;;;;;;;;;;21.97;64.78;99023.91;2072913;28;19955;-46
2022/10/09 03:52:24;;;;;;;;;;;;;;;21.97;64.89;99022.03;2075009;28;20260;-48
2022/10/09 03:53:26;;;;;;;;;;;;;;;21.96;65.04;99017.69;2078797;28;19995;-46
2022/10/09 03:54:26;;;;;;;;;;;;;;;21.96;64.95;99023.09;2073406;28;19933;-46
2022/10/09 03:55:28;;;;;;;;;;;;;;;21.96;64.85;99022.28;2072130;28;20448;-46
2022/10/09 03:56:28;;;;;;;;;;;;;;;21.95;64.67;99021.41;2073551;28;19933;-49
2022/10/09 03:57:30;;;;;;;;;;;;;;;21.96;64.63;99030.38;2072543;28;19933;-45
2022/10/09 03:58:30;;;;;;;;;;;;;;;21.95;64.75;99026.81;2074602;28;19932;-47
2022/10/09 03:59:32;;;;;;;;;;;;;;;21.96;64.56;99024.97;2073289;28;19929;-47
2022/10/09 04:00:32;;;;;;;;;;;;;;;21.96;64.71;99028.50;2074619;28;19936;-46
2022/10/09 04:01:35;;;;;;;;;;;;;;;21.96;64.50;99027.66;2075643;28;20402;-47
2022/10/09 04:02:36;;;;;;;;;;;;;;;21.94;64.46;99027.06;2083318;28;19986;-46
2022/10/09 04:03:37;;;;;;;;;;;;;;;21.96;64.58;99030.38;2066642;28;20302;-46
2022/10/09 04:04:38;;;;;;;;;;;;;;;21.95;64.55;99028.69;2069817;28;19936;-51
2022/10/09 04:05:39;;;;;;;;;;;;;;;21.95;64.46;99032.22;2076063;28;19935;-47
2022/10/09 04:06:40;;;;;;;;;;;;;;;21.96;64.50;99030.38;2072811;28;19936;-46
2022/10/09 04:07:41;;;;;;;;;;;;;;;21.95;64.44;99036.78;2074514;28;20432;-46
2022/10/09 04:08:42;;;;;;;;;;;;;;;21.93;64.43;99034.31;2074426;28;19929;-46
2022/10/09 04:09:43;;;;;;;;;;;;;;;21.93;64.34;99031.63;2065586;28;19929;-48
2022/10/09 04:10:43;;;;;;;;;;;;;;;21.93;64.61;99033.50;2072263;28;20023;-47
2022/10/09 04:11:45;;;;;;;;;;;;;;;21.94;64.52;99035.97;2070224;28;19928;-47
2022/10/09 04:12:46;;;;;;;;;;;;;;;21.93;64.58;99028.09;2073030;28;19982;-50
2022/10/09 04:13:47;;;;;;;;;;;;;;;21.94;64.60;99033.28;2078238;28;19933;-48
2022/10/09 04:14:47;;;;;;;;;;;;;;;21.94;64.49;99029.75;2072860;28;19932;-46
2022/10/09 04:15:50;;;;;;;;;;;;;;;21.94;64.34;99035.16;2075159;28;19929;-47
2022/10/09 04:16:51;;;;;;;;;;;;;;;21.92;64.34;99032.66;2074915;28;19925;-47
2022/10/09 04:17:53;;;;;;;;;;;;;;;21.94;64.25;99035.97;2073123;28;19951;-46
2022/10/09 04:18:53;;;;;;;;;;;;;;;21.93;64.36;99030.81;2072336;28;20315;-50
2022/10/09 04:19:55;;;;;;;;;;;;;;;21.91;64.46;99031.00;2069862;28;19937;-49
2022/10/09 04:20:56;;;;;;;;;;;;;;;21.92;64.34;99035.34;2068790;28;20474;-47
2022/10/09 04:21:57;;;;;;;;;;;;;;;21.91;64.33;99031.00;2072789;28;19936;-48
2022/10/09 04:22:58;;;;;;;;;;;;;;;21.92;64.35;99032.66;2071021;28;19987;-48
2022/10/09 04:23:59;;;;;;;;;;;;;;;21.93;64.17;99033.50;2071285;28;20390;-47
2022/10/09 04:25:00;;;;;;;;;;;;;;;21.92;64.28;99035.34;2072547;28;19937;-47
2022/10/09 04:26:01;;;;;;;;;;;;;;;21.92;64.23;99035.34;2067945;28;20264;-47
2022/10/09 04:27:02;;;;;;;;;;;;;;;21.92;64.32;99040.75;2076418;28;19925;-46
2022/10/09 04:28:03;;;;;;;;;;;;;;;21.92;64.19;99038.06;2074786;28;19987;-47
2022/10/09 04:29:04;;;;;;;;;;;;;;;21.92;64.19;99031.84;2071559;28;20018;-47
2022/10/09 04:30:06;;;;;;;;;;;;;;;21.91;64.40;99031.00;2071018;28;19937;-46
2022/10/09 04:31:06;;;;;;;;;;;;;;;21.92;64.26;99032.66;2070045;28;20814;-49
2022/10/09 04:32:09;;;;;;;;;;;;;;;21.92;64.11;99032.66;2071283;28;19928;-47
2022/10/09 04:33:10;;;;;;;;;;;;;;;21.93;64.26;99026.22;2073519;28;19933;-49
2022/10/09 04:34:11;;;;;;;;;;;;;;;21.92;64.20;99021.84;2069397;28;19925;-48
2022/10/09 04:35:12;;;;;;;;;;;;;;;21.91;64.30;99028.31;2069400;28;19980;-46
2022/10/09 04:36:13;;;;;;;;;;;;;;;21.91;64.24;99022.91;2069163;28;19999;-50
2022/10/09 04:37:14;;;;;;;;;;;;;;;21.92;64.04;99024.56;2073518;28;19929;-47
2022/10/09 04:38:15;;;;;;;;;;;;;;;21.91;64.35;99028.31;2072858;28;19925;-47
2022/10/09 04:39:15;;;;;;;;;;;;;;;21.90;64.49;99029.38;2068992;28;20384;-48
2022/10/09 04:40:17;;;;;;;;;;;;;;;21.91;64.58;99036.41;2071823;28;19929;-48
2022/10/09 04:41:18;;;;;;;;;;;;;;;21.89;64.40;99033.09;2068814;28;19933;-47
2022/10/09 04:42:19;;;;;;;;;;;;;;;21.90;64.51;99033.91;2075745;28;19929;-47
2022/10/09 04:43:20;;;;;;;;;;;;;;;21.90;64.57;99032.06;2071362;28;19933;-45
2022/10/09 04:44:21;;;;;;;;;;;;;;;21.90;64.50;99032.06;2068739;28;19940;-46
2022/10/09 04:45:22;;;;;;;;;;;;;;;21.89;64.52;99034.97;2071424;28;22138;-45
2022/10/09 04:46:23;;;;;;;;;;;;;;;21.88;64.48;99031.44;2072151;28;19933;-46
2022/10/09 04:47:25;;;;;;;;;;;;;;;21.88;64.29;99034.16;2071969;28;19970;-46
2022/10/09 04:48:27;;;;;;;;;;;;;;;21.89;64.38;99032.25;2071878;28;19932;-46
2022/10/09 04:49:27;;;;;;;;;;;;;;;21.89;64.33;99033.09;2074202;28;19929;-45
2022/10/09 04:50:29;;;;;;;;;;;;;;;21.89;64.41;99030.38;2071478;28;19933;-45
2022/10/09 04:51:29;;;;;;;;;;;;;;;21.89;64.12;99038.50;2070158;28;19933;-48
2022/10/09 04:52:31;;;;;;;;;;;;;;;21.87;64.20;99037.91;2072728;28;19951;-46
2022/10/09 04:53:31;;;;;;;;;;;;;;;21.88;64.49;99039.53;2068141;28;19925;-46
2022/10/09 04:54:33;;;;;;;;;;;;;;;21.89;64.31;99040.38;2073553;28;19929;-47
2022/10/09 04:55:37;;;;;;;;;;;;;;;21.90;64.31;99033.91;2070761;28;19925;-46
2022/10/09 04:56:38;;;;;;;;;;;;;;;21.88;64.34;99036.84;2070533;28;20111;-47
2022/10/09 04:57:39;;;;;;;;;;;;;;;21.89;64.04;99041.19;2070354;28;19983;-47
2022/10/09 04:58:41;;;;;;;;;;;;;;;21.90;64.20;99044.72;2071452;28;19974;-47
2022/10/09 04:59:41;;;;;;;;;;;;;;;21.88;64.29;99042.25;2071839;28;19978;-47
2022/10/09 05:00:43;;;;;;;;;;;;;;;21.88;64.00;99042.25;2073614;28;19945;-46
2022/10/09 05:01:44;;;;;;;;;;;;;;;21.88;64.17;99036.84;2067263;28;20007;-49
2022/10/09 05:02:47;;;;;;;;;;;;;;;21.89;64.33;99046.59;2070660;28;19936;-46
2022/10/09 05:03:48;;;;;;;;;;;;;;;21.87;64.35;99040.59;2071820;28;19928;-49
2022/10/09 05:04:49;;;;;;;;;;;;;;;21.88;64.27;99042.25;2059126;28;20016;-47
2022/10/09 05:05:50;;;;;;;;;;;;;;;21.88;64.31;99044.13;2069770;28;19983;-45
2022/10/09 05:06:51;;;;;;;;;;;;;;;21.89;64.18;99048.47;2072743;28;20345;-48
2022/10/09 05:07:52;;;;;;;;;;;;;;;21.87;64.40;99046.00;2070679;28;19933;-46
2022/10/09 05:08:54;;;;;;;;;;;;;;;21.88;64.15;99053.03;2074699;28;19939;-46
2022/10/09 05:09:55;;;;;;;;;;;;;;;21.86;64.25;99044.31;2071285;28;19925;-46
2022/10/09 05:10:59;;;;;;;;;;;;;;;21.86;64.36;99055.94;2067453;28;20004;-49
2022/10/09 05:11:59;;;;;;;;;;;;;;;21.88;64.19;99061.16;2070696;28;19976;-49
2022/10/09 05:13:01;;;;;;;;;;;;;;;21.87;64.02;99059.50;2068314;28;19929;-46
2022/10/09 05:14:01;;;;;;;;;;;;;;;21.89;64.34;99056.56;2071150;28;20318;-46
2022/10/09 05:15:03;;;;;;;;;;;;;;;21.87;64.10;99054.09;2073393;28;19925;-47
2022/10/09 05:16:06;;;;;;;;;;;;;;;21.88;64.31;99052.22;2072871;28;19924;-50
2022/10/09 05:17:07;;;;;;;;;;;;;;;21.87;64.27;99051.41;2071870;28;19968;-47
2022/10/09 05:18:09;;;;;;;;;;;;;;;21.87;64.25;99051.41;2072119;28;20473;-53
2022/10/09 05:19:10;;;;;;;;;;;;;;;21.87;64.34;99054.09;2071085;28;19979;-47
2022/10/09 05:20:12;;;;;;;;;;;;;;;21.87;64.10;99054.09;2074228;28;20319;-47
2022/10/09 05:21:12;;;;;;;;;;;;;;;21.88;64.30;99058.44;2072300;28;20395;-46
2022/10/09 05:22:14;;;;;;;;;;;;;;;21.86;64.26;99053.25;2071886;28;19929;-46